SWA2621 KLAS-KLAX
Flight info
| Callsign | SWA2621 |
|---|---|
| Flight time | 0h 37m |
| Altitude | 28000 |
| Route | RADYR2 BLAQQ SHTNR ANJLL4 |
| Aircraft | B737/M-SDE2E3FGHIRWXY/LB1 |
Departure
| Time | 2026-05-07 06:29 |
|---|---|
| Airport | Harry Reid International Airport (KLAS) |
Arrival
| Time | 2026-05-07 07:06 |
|---|---|
| Airport | Los Angeles International Airport (KLAX) |
| Time | Latitude | Longitude | Altitude | Speed | Heading |
|---|---|---|---|---|---|
| 2026-05-07 05:28 | 36.07959 | -115.14668 | 2096 ft | 0 kts | 27° |
| 2026-05-07 06:19 | 36.07949 | -115.14675 | 2096 ft | 4 kts | 27° |
| 2026-05-07 06:19 | 36.07925 | -115.14691 | 2096 ft | 4 kts | 27° |
| 2026-05-07 06:19 | 36.07914 | -115.14698 | 2096 ft | 0 kts | 27° |
| 2026-05-07 06:21 | 36.07915 | -115.14696 | 2096 ft | 1 kts | 42° |
| 2026-05-07 06:21 | 36.07916 | -115.14667 | 2096 ft | 6 kts | 111° |
| 2026-05-07 06:21 | 36.07885 | -115.14619 | 2095 ft | 9 kts | 132° |
| 2026-05-07 06:21 | 36.07846 | -115.14553 | 2095 ft | 10 kts | 113° |
| 2026-05-07 06:22 | 36.07835 | -115.14458 | 2095 ft | 12 kts | 95° |
| 2026-05-07 06:22 | 36.07827 | -115.14238 | 2094 ft | 14 kts | 89° |
| 2026-05-07 06:22 | 36.07827 | -115.14107 | 2093 ft | 16 kts | 90° |
| 2026-05-07 06:23 | 36.07828 | -115.13961 | 2092 ft | 17 kts | 89° |
| 2026-05-07 06:23 | 36.07828 | -115.13808 | 2092 ft | 18 kts | 90° |
| 2026-05-07 06:23 | 36.07828 | -115.13660 | 2091 ft | 17 kts | 90° |
| 2026-05-07 06:23 | 36.07828 | -115.13571 | 2091 ft | 8 kts | 90° |
| 2026-05-07 06:24 | 36.07828 | -115.13480 | 2090 ft | 12 kts | 91° |
| 2026-05-07 06:24 | 36.07828 | -115.13361 | 2088 ft | 15 kts | 89° |
| 2026-05-07 06:24 | 36.07828 | -115.13216 | 2085 ft | 18 kts | 89° |
| 2026-05-07 06:24 | 36.07826 | -115.13044 | 2079 ft | 22 kts | 90° |
| 2026-05-07 06:25 | 36.07828 | -115.12842 | 2070 ft | 25 kts | 89° |
| 2026-05-07 06:25 | 36.07829 | -115.12612 | 2061 ft | 29 kts | 90° |
| 2026-05-07 06:25 | 36.07829 | -115.12388 | 2056 ft | 20 kts | 89° |
| 2026-05-07 06:25 | 36.07813 | -115.12240 | 2051 ft | 17 kts | 127° |
| 2026-05-07 06:26 | 36.07757 | -115.12160 | 2048 ft | 7 kts | 129° |
| 2026-05-07 06:26 | 36.07753 | -115.12153 | 2048 ft | 0 kts | 129° |
| 2026-05-07 06:26 | 36.07728 | -115.12128 | 2047 ft | 13 kts | 154° |
| 2026-05-07 06:26 | 36.07645 | -115.12139 | 2047 ft | 9 kts | 242° |
| 2026-05-07 06:27 | 36.07643 | -115.12162 | 2048 ft | 0 kts | 270° |
| 2026-05-07 06:28 | 36.07645 | -115.12286 | 2050 ft | 44 kts | 271° |
| 2026-05-07 06:29 | 36.07641 | -115.12952 | 2073 ft | 109 kts | 270° |
| 2026-05-07 06:29 | 36.07641 | -115.14118 | 2111 ft | 158 kts | 270° |
| 2026-05-07 06:29 | 36.07642 | -115.15513 | 2626 ft | 168 kts | 268° |
| 2026-05-07 06:29 | 36.07642 | -115.16964 | 3325 ft | 168 kts | 269° |
| 2026-05-07 06:30 | 36.07642 | -115.18432 | 3939 ft | 176 kts | 270° |
| 2026-05-07 06:30 | 36.07643 | -115.20070 | 4273 ft | 207 kts | 270° |
| 2026-05-07 06:30 | 36.07511 | -115.21964 | 4511 ft | 235 kts | 261° |
| 2026-05-07 06:30 | 36.07117 | -115.23999 | 5040 ft | 250 kts | 245° |
| 2026-05-07 06:31 | 36.06100 | -115.25755 | 5828 ft | 258 kts | 227° |
| 2026-05-07 06:31 | 36.04576 | -115.27084 | 6353 ft | 277 kts | 201° |
| 2026-05-07 06:31 | 36.02732 | -115.27892 | 7169 ft | 284 kts | 199° |
| 2026-05-07 06:31 | 36.00848 | -115.28707 | 7792 ft | 288 kts | 200° |
| 2026-05-07 06:32 | 35.98929 | -115.29531 | 8613 ft | 295 kts | 196° |
| 2026-05-07 06:32 | 35.96922 | -115.30123 | 9645 ft | 298 kts | 191° |
| 2026-05-07 06:32 | 35.94861 | -115.30607 | 10509 ft | 308 kts | 190° |
| 2026-05-07 06:32 | 35.92672 | -115.31101 | 10970 ft | 330 kts | 190° |
| 2026-05-07 06:33 | 35.90378 | -115.31625 | 11735 ft | 339 kts | 190° |
| 2026-05-07 06:33 | 35.88040 | -115.32173 | 12625 ft | 345 kts | 190° |
| 2026-05-07 06:33 | 35.85663 | -115.32740 | 13544 ft | 351 kts | 190° |
| 2026-05-07 06:33 | 35.83246 | -115.33323 | 14420 ft | 356 kts | 190° |
| 2026-05-07 06:34 | 35.80795 | -115.33920 | 15255 ft | 362 kts | 190° |
| 2026-05-07 06:34 | 35.78304 | -115.34529 | 16134 ft | 367 kts | 190° |
| 2026-05-07 06:34 | 35.75781 | -115.35147 | 17027 ft | 372 kts | 190° |
| 2026-05-07 06:34 | 35.73226 | -115.35773 | 17903 ft | 378 kts | 189° |
| 2026-05-07 06:35 | 35.70627 | -115.36409 | 18719 ft | 383 kts | 189° |
| 2026-05-07 06:35 | 35.67998 | -115.37053 | 19485 ft | 388 kts | 189° |
| 2026-05-07 06:35 | 35.65336 | -115.37703 | 20259 ft | 392 kts | 189° |
| 2026-05-07 06:35 | 35.62648 | -115.38359 | 21035 ft | 397 kts | 189° |
| 2026-05-07 06:36 | 35.59906 | -115.38848 | 21798 ft | 399 kts | 179° |
| 2026-05-07 06:36 | 35.57146 | -115.38704 | 22741 ft | 395 kts | 173° |
| 2026-05-07 06:36 | 35.54420 | -115.38422 | 23767 ft | 392 kts | 172° |
| 2026-05-07 06:36 | 35.51707 | -115.38158 | 24590 ft | 391 kts | 173° |
| 2026-05-07 06:37 | 35.48992 | -115.37939 | 25378 ft | 390 kts | 174° |
| 2026-05-07 06:37 | 35.46286 | -115.37747 | 26178 ft | 390 kts | 175° |
| 2026-05-07 06:37 | 35.43586 | -115.38059 | 26946 ft | 393 kts | 195° |
| 2026-05-07 06:37 | 35.41071 | -115.39364 | 27721 ft | 395 kts | 206° |
| 2026-05-07 06:38 | 35.38628 | -115.40927 | 28022 ft | 395 kts | 207° |
| 2026-05-07 06:38 | 35.36215 | -115.42530 | 28090 ft | 398 kts | 208° |
| 2026-05-07 06:38 | 35.33730 | -115.44179 | 28116 ft | 414 kts | 208° |
| 2026-05-07 06:38 | 35.31140 | -115.45878 | 28109 ft | 430 kts | 207° |
| 2026-05-07 06:39 | 35.28450 | -115.47619 | 28102 ft | 445 kts | 207° |
| 2026-05-07 06:39 | 35.25673 | -115.49400 | 28096 ft | 458 kts | 207° |
| 2026-05-07 06:39 | 35.22812 | -115.51227 | 28097 ft | 469 kts | 207° |
| 2026-05-07 06:39 | 35.19888 | -115.53091 | 28100 ft | 479 kts | 207° |
| 2026-05-07 06:40 | 35.13867 | -115.56934 | 28086 ft | 496 kts | 208° |
| 2026-05-07 06:40 | 35.11033 | -115.59351 | 28064 ft | 500 kts | 224° |
| 2026-05-07 06:40 | 35.08628 | -115.62413 | 28089 ft | 499 kts | 227° |
| 2026-05-07 06:41 | 35.03926 | -115.68637 | 28053 ft | 499 kts | 227° |
| 2026-05-07 06:41 | 34.99175 | -115.74810 | 28060 ft | 499 kts | 227° |
| 2026-05-07 06:42 | 34.94379 | -115.80920 | 28052 ft | 498 kts | 226° |
| 2026-05-07 06:42 | 34.89613 | -115.86961 | 28038 ft | 498 kts | 226° |
| 2026-05-07 06:43 | 34.84817 | -115.93039 | 28028 ft | 497 kts | 226° |
| 2026-05-07 06:43 | 34.80025 | -115.99107 | 28038 ft | 497 kts | 227° |
| 2026-05-07 06:44 | 34.75233 | -116.05173 | 28034 ft | 498 kts | 227° |
| 2026-05-07 06:44 | 34.70448 | -116.11268 | 28023 ft | 499 kts | 227° |
| 2026-05-07 06:45 | 34.65652 | -116.17376 | 28024 ft | 499 kts | 227° |
| 2026-05-07 06:45 | 34.60857 | -116.23467 | 28022 ft | 500 kts | 227° |
| 2026-05-07 06:46 | 34.56052 | -116.29556 | 28026 ft | 500 kts | 227° |
| 2026-05-07 06:46 | 34.51234 | -116.35651 | 28023 ft | 500 kts | 227° |
| 2026-05-07 06:47 | 34.46422 | -116.41731 | 28029 ft | 496 kts | 227° |
| 2026-05-07 06:47 | 34.44082 | -116.44680 | 28011 ft | 476 kts | 227° |
| 2026-05-07 06:47 | 34.41874 | -116.47548 | 27995 ft | 454 kts | 233° |
| 2026-05-07 06:48 | 34.40292 | -116.50716 | 28042 ft | 429 kts | 247° |
| 2026-05-07 06:48 | 34.39036 | -116.53914 | 27957 ft | 414 kts | 247° |
| 2026-05-07 06:48 | 34.37798 | -116.57056 | 27601 ft | 413 kts | 247° |
| 2026-05-07 06:48 | 34.36514 | -116.60262 | 27211 ft | 436 kts | 246° |
| 2026-05-07 06:49 | 34.35130 | -116.63654 | 26766 ft | 463 kts | 246° |
| 2026-05-07 06:49 | 34.33654 | -116.67229 | 26266 ft | 486 kts | 245° |
| 2026-05-07 06:49 | 34.32130 | -116.70942 | 25768 ft | 494 kts | 246° |
| 2026-05-07 06:49 | 34.30627 | -116.74665 | 25254 ft | 492 kts | 246° |
| 2026-05-07 06:50 | 34.29136 | -116.78382 | 24726 ft | 489 kts | 246° |
| 2026-05-07 06:50 | 34.27657 | -116.82074 | 24170 ft | 487 kts | 246° |
| 2026-05-07 06:50 | 34.26178 | -116.85753 | 23628 ft | 485 kts | 246° |
| 2026-05-07 06:50 | 34.24710 | -116.89397 | 22990 ft | 479 kts | 246° |
| 2026-05-07 06:51 | 34.23261 | -116.92984 | 22425 ft | 470 kts | 246° |
| 2026-05-07 06:51 | 34.21832 | -116.96514 | 21883 ft | 467 kts | 246° |
| 2026-05-07 06:51 | 34.20486 | -117.00070 | 21345 ft | 464 kts | 251° |
| 2026-05-07 06:51 | 34.19456 | -117.03743 | 20839 ft | 460 kts | 255° |
| 2026-05-07 06:52 | 34.18570 | -117.07399 | 20295 ft | 458 kts | 256° |
| 2026-05-07 06:52 | 34.17654 | -117.11074 | 19775 ft | 456 kts | 255° |
| 2026-05-07 06:52 | 34.16694 | -117.14702 | 19235 ft | 450 kts | 253° |
| 2026-05-07 06:52 | 34.15721 | -117.18247 | 18657 ft | 440 kts | 253° |
| 2026-05-07 06:53 | 34.14764 | -117.21697 | 18209 ft | 427 kts | 253° |
| 2026-05-07 06:53 | 34.13838 | -117.25031 | 17714 ft | 414 kts | 253° |
| 2026-05-07 06:53 | 34.12934 | -117.28305 | 17153 ft | 406 kts | 253° |
| 2026-05-07 06:53 | 34.12053 | -117.31501 | 16637 ft | 398 kts | 253° |
| 2026-05-07 06:54 | 34.11185 | -117.34644 | 16142 ft | 391 kts | 253° |
| 2026-05-07 06:54 | 34.10337 | -117.37733 | 15650 ft | 384 kts | 253° |
| 2026-05-07 06:54 | 34.09559 | -117.40787 | 15176 ft | 378 kts | 255° |
| 2026-05-07 06:54 | 34.08818 | -117.43805 | 14689 ft | 373 kts | 255° |
| 2026-05-07 06:55 | 34.08081 | -117.46790 | 14139 ft | 371 kts | 254° |
| 2026-05-07 06:55 | 34.07339 | -117.49766 | 13599 ft | 367 kts | 253° |
| 2026-05-07 06:55 | 34.06599 | -117.52688 | 13118 ft | 362 kts | 253° |
| 2026-05-07 06:55 | 34.05864 | -117.55560 | 12652 ft | 356 kts | 253° |
| 2026-05-07 06:56 | 34.05136 | -117.58399 | 12182 ft | 351 kts | 253° |
| 2026-05-07 06:56 | 34.04420 | -117.61194 | 11745 ft | 346 kts | 253° |
| 2026-05-07 06:56 | 34.03713 | -117.63953 | 11308 ft | 343 kts | 253° |
| 2026-05-07 06:56 | 34.03012 | -117.66688 | 10872 ft | 340 kts | 253° |
| 2026-05-07 06:57 | 34.02316 | -117.69407 | 10433 ft | 338 kts | 254° |
| 2026-05-07 06:57 | 34.01847 | -117.72156 | 10099 ft | 332 kts | 264° |
| 2026-05-07 06:57 | 34.01609 | -117.74929 | 9647 ft | 334 kts | 266° |
| 2026-05-07 06:57 | 34.01392 | -117.77704 | 9239 ft | 332 kts | 266° |
| 2026-05-07 06:58 | 34.01159 | -117.80462 | 8820 ft | 329 kts | 265° |
| 2026-05-07 06:58 | 34.00907 | -117.83171 | 8406 ft | 323 kts | 264° |
| 2026-05-07 06:58 | 34.00649 | -117.85838 | 8019 ft | 317 kts | 264° |
| 2026-05-07 06:58 | 34.00479 | -117.87570 | 7760 ft | 313 kts | 264° |
| 2026-05-07 06:59 | 34.00225 | -117.90154 | 7377 ft | 308 kts | 264° |
| 2026-05-07 06:59 | 33.99975 | -117.92702 | 6993 ft | 304 kts | 264° |
| 2026-05-07 06:59 | 33.99729 | -117.95210 | 6604 ft | 297 kts | 264° |
| 2026-05-07 06:59 | 33.99491 | -117.97622 | 6196 ft | 284 kts | 264° |
| 2026-05-07 07:00 | 33.99190 | -118.00668 | 5703 ft | 270 kts | 264° |
| 2026-05-07 07:00 | 33.98968 | -118.02898 | 5376 ft | 267 kts | 264° |
| 2026-05-07 07:00 | 33.98819 | -118.04394 | 5147 ft | 265 kts | 264° |
| 2026-05-07 07:00 | 33.98603 | -118.06590 | 4850 ft | 261 kts | 265° |
| 2026-05-07 07:01 | 33.98440 | -118.08766 | 4456 ft | 261 kts | 266° |
| 2026-05-07 07:01 | 33.98254 | -118.10931 | 4119 ft | 259 kts | 264° |
| 2026-05-07 07:01 | 33.98065 | -118.12811 | 3919 ft | 253 kts | 263° |
| 2026-05-07 07:01 | 33.97849 | -118.14862 | 3839 ft | 241 kts | 263° |
| 2026-05-07 07:02 | 33.97642 | -118.16819 | 3763 ft | 230 kts | 263° |
| 2026-05-07 07:02 | 33.97444 | -118.18700 | 3570 ft | 224 kts | 263° |
| 2026-05-07 07:02 | 33.97252 | -118.20532 | 3287 ft | 218 kts | 263° |
| 2026-05-07 07:02 | 33.97065 | -118.22317 | 3002 ft | 212 kts | 263° |
| 2026-05-07 07:03 | 33.96884 | -118.24058 | 2724 ft | 207 kts | 263° |
| 2026-05-07 07:03 | 33.96706 | -118.25759 | 2453 ft | 202 kts | 263° |
| 2026-05-07 07:03 | 33.96537 | -118.27386 | 2199 ft | 191 kts | 263° |
| 2026-05-07 07:03 | 33.96376 | -118.28933 | 1947 ft | 181 kts | 263° |
| 2026-05-07 07:04 | 33.96225 | -118.30387 | 1706 ft | 169 kts | 263° |
| 2026-05-07 07:04 | 33.96085 | -118.31733 | 1501 ft | 155 kts | 262° |
| 2026-05-07 07:04 | 33.95959 | -118.32953 | 1296 ft | 146 kts | 262° |
| 2026-05-07 07:04 | 33.95834 | -118.34163 | 1120 ft | 146 kts | 262° |
| 2026-05-07 07:05 | 33.95705 | -118.35342 | 906 ft | 141 kts | 261° |
| 2026-05-07 07:05 | 33.95584 | -118.36490 | 702 ft | 137 kts | 265° |
| 2026-05-07 07:05 | 33.95477 | -118.37604 | 559 ft | 132 kts | 262° |
| 2026-05-07 07:05 | 33.95361 | -118.38711 | 370 ft | 134 kts | 262° |
| 2026-05-07 07:06 | 33.95248 | -118.39824 | 196 ft | 133 kts | 263° |
| 2026-05-07 07:06 | 33.95139 | -118.40891 | 92 ft | 117 kts | 263° |
| 2026-05-07 07:06 | 33.95066 | -118.41612 | 95 ft | 67 kts | 263° |
| 2026-05-07 07:06 | 33.95013 | -118.42040 | 94 ft | 42 kts | 250° |
| 2026-05-07 07:07 | 33.94870 | -118.42262 | 95 ft | 29 kts | 209° |
| 2026-05-07 07:07 | 33.94703 | -118.42253 | 93 ft | 23 kts | 139° |
| 2026-05-07 07:07 | 33.94697 | -118.42103 | 92 ft | 6 kts | 83° |
| 2026-05-07 07:07 | 33.94697 | -118.42101 | 92 ft | 0 kts | 83° |
| 2026-05-07 07:11 | 33.94705 | -118.42018 | 92 ft | 19 kts | 84° |
| 2026-05-07 07:11 | 33.94725 | -118.41814 | 92 ft | 26 kts | 83° |
| 2026-05-07 07:11 | 33.94744 | -118.41611 | 92 ft | 17 kts | 89° |
| 2026-05-07 07:12 | 33.94675 | -118.41519 | 92 ft | 16 kts | 105° |
| 2026-05-07 07:12 | 33.94680 | -118.41392 | 92 ft | 15 kts | 82° |
| 2026-05-07 07:12 | 33.94699 | -118.41242 | 92 ft | 22 kts | 75° |
| 2026-05-07 07:12 | 33.94735 | -118.41042 | 92 ft | 27 kts | 83° |
| 2026-05-07 07:13 | 33.94758 | -118.40818 | 92 ft | 26 kts | 83° |
| 2026-05-07 07:13 | 33.94779 | -118.40607 | 92 ft | 24 kts | 83° |
| 2026-05-07 07:13 | 33.94799 | -118.40411 | 92 ft | 23 kts | 82° |
| 2026-05-07 07:13 | 33.94826 | -118.40225 | 92 ft | 22 kts | 80° |
| 2026-05-07 07:14 | 33.94844 | -118.40052 | 92 ft | 15 kts | 87° |
| 2026-05-07 07:14 | 33.94774 | -118.40006 | 94 ft | 13 kts | 186° |
| 2026-05-07 07:14 | 33.94685 | -118.40010 | 92 ft | 9 kts | 179° |
| 2026-05-07 07:14 | 33.94652 | -118.40047 | 92 ft | 2 kts | 271° |
| 2026-05-07 07:15 | 33.94653 | -118.40058 | 92 ft | 1 kts | 274° |
| 2026-05-07 07:15 | 33.94654 | -118.40063 | 92 ft | 0 kts | 274° |